Weather at Cape May County Airport

Public forecast

Using degrees Fahrenheit for public forecast. Weather courtesy of forecast.io.

Current aviation weather report (METAR) for Cape May County Airport

Retrieved 2020/09/29 18:56 UTC (33 minutes ago):

KWWD 291856Z AUTO 18006KT 10SM OVC085 24/22 A2981 RMK AO2 RAE06 SLP096 P0001 T02390217

Closest aviation forecast (TAF) to Cape May County Airport

Closest forecast is Millville Municipal Airport, 22.9 nm (42.4 km) NNW. Retrieved 2020/09/29 18:33 UTC (56 minutes ago):

TAF KMIV 291730Z 2918/3018 18009KT P6SM -SHRA SCT015 OVC040 TEMPO 2918/2920 2SM -SHRA OVC015 FM292100 16008KT P6SM -SHRA OVC035 FM300000 17010G19KT 5SM -SHRA OVC015 FM300200 15010G19KT 5SM -SHRA OVC008 FM300500 28008G18KT 2SM +SHRA OVC006 FM301200 25012G20KT 3SM -SHRA OVC015 FM301500 27010G18KT P6SM BKN035